CXA385 EHEH-EHRD
Flight info
| Callsign | CXA385 |
|---|---|
| Flight time | N/A |
| Altitude | 2500 |
| Route | EHEH INKET EHRD |
| Aircraft | P28A/L-SG/L |
Departure
| Time | 2026-04-27 15:44 |
|---|---|
| Airport | Eindhoven Airport (EHEH) |
Arrival
| Time | N/A |
|---|---|
| Airport | Rotterdam The Hague Airport (EHRD) |
| Time | Latitude | Longitude | Altitude | Speed | Heading |
|---|---|---|---|---|---|
| 2026-04-27 15:27 | 51.45776 | 5.37762 | 77 ft | 0 kts | 235° |
| 2026-04-27 15:37 | 51.45752 | 5.37708 | 71 ft | 10 kts | 231° |
| 2026-04-27 15:38 | 51.45696 | 5.37581 | 75 ft | 19 kts | 234° |
| 2026-04-27 15:38 | 51.45634 | 5.37409 | 73 ft | 13 kts | 245° |
| 2026-04-27 15:38 | 51.45597 | 5.37292 | 77 ft | 12 kts | 241° |
| 2026-04-27 15:38 | 51.45544 | 5.37133 | 75 ft | 22 kts | 242° |
| 2026-04-27 15:39 | 51.45466 | 5.36913 | 74 ft | 22 kts | 229° |
| 2026-04-27 15:39 | 51.45348 | 5.36793 | 77 ft | 19 kts | 194° |
| 2026-04-27 15:39 | 51.45221 | 5.36822 | 75 ft | 21 kts | 169° |
| 2026-04-27 15:39 | 51.45055 | 5.36875 | 77 ft | 26 kts | 169° |
| 2026-04-27 15:40 | 51.44909 | 5.36922 | 74 ft | 0 kts | 166° |
| 2026-04-27 15:41 | 51.44820 | 5.36934 | 77 ft | 20 kts | 199° |
| 2026-04-27 15:41 | 51.44684 | 5.36796 | 76 ft | 29 kts | 214° |
| 2026-04-27 15:41 | 51.44483 | 5.36570 | 74 ft | 42 kts | 216° |
| 2026-04-27 15:42 | 51.44233 | 5.36291 | 74 ft | 42 kts | 216° |
| 2026-04-27 15:42 | 51.44036 | 5.36076 | 71 ft | 22 kts | 198° |
| 2026-04-27 15:42 | 51.43966 | 5.36089 | 68 ft | 0 kts | 120° |
| 2026-04-27 15:43 | 51.43929 | 5.36210 | 74 ft | 17 kts | 74° |
| 2026-04-27 15:43 | 51.43976 | 5.36282 | 75 ft | 3 kts | 33° |
| 2026-04-27 15:43 | 51.44105 | 5.36427 | 70 ft | 56 kts | 36° |
| 2026-04-27 15:44 | 51.44545 | 5.36935 | 211 ft | 89 kts | 38° |
| 2026-04-27 15:44 | 51.45045 | 5.37485 | 734 ft | 86 kts | 15° |
| 2026-04-27 15:44 | 51.45614 | 5.37017 | 1044 ft | 118 kts | 315° |
| 2026-04-27 15:44 | 51.46001 | 5.35852 | 1073 ft | 118 kts | 298° |
| 2026-04-27 15:45 | 51.46309 | 5.34594 | 1034 ft | 120 kts | 296° |
| 2026-04-27 15:45 | 51.46670 | 5.33427 | 1143 ft | 116 kts | 307° |
| 2026-04-27 15:45 | 51.47155 | 5.32390 | 1072 ft | 120 kts | 317° |
| 2026-04-27 15:45 | 51.47742 | 5.31454 | 1034 ft | 121 kts | 322° |
| 2026-04-27 15:46 | 51.48421 | 5.30671 | 1049 ft | 115 kts | 338° |
| 2026-04-27 15:46 | 51.49155 | 5.30245 | 1068 ft | 112 kts | 347° |
| 2026-04-27 15:46 | 51.49888 | 5.29894 | 1069 ft | 112 kts | 348° |
| 2026-04-27 15:46 | 51.50630 | 5.29536 | 1101 ft | 107 kts | 348° |
| 2026-04-27 15:47 | 51.51343 | 5.29132 | 1120 ft | 109 kts | 341° |
| 2026-04-27 15:47 | 51.52021 | 5.28668 | 1162 ft | 105 kts | 345° |
| 2026-04-27 15:47 | 51.52734 | 5.28446 | 1176 ft | 101 kts | 359° |
| 2026-04-27 15:47 | 51.53403 | 5.28273 | 1279 ft | 99 kts | 349° |
| 2026-04-27 15:48 | 51.54034 | 5.28086 | 1433 ft | 90 kts | 357° |
| 2026-04-27 15:48 | 51.54687 | 5.28052 | 1697 ft | 90 kts | 360° |
| 2026-04-27 15:48 | 51.55318 | 5.28016 | 1940 ft | 96 kts | 2° |
| 2026-04-27 15:49 | 51.56513 | 5.27161 | 2273 ft | 105 kts | 318° |
| 2026-04-27 15:49 | 51.57028 | 5.26385 | 2449 ft | 108 kts | 326° |
| 2026-04-27 15:49 | 51.57676 | 5.25642 | 2498 ft | 124 kts | 332° |
| 2026-04-27 15:49 | 51.58440 | 5.24992 | 2630 ft | 120 kts | 339° |
| 2026-04-27 15:50 | 51.59215 | 5.24528 | 2684 ft | 127 kts | 342° |
| 2026-04-27 15:50 | 51.60104 | 5.24018 | 2675 ft | 136 kts | 343° |
| 2026-04-27 15:50 | 51.60916 | 5.23345 | 2718 ft | 141 kts | 323° |
| 2026-04-27 15:50 | 51.61554 | 5.22094 | 2652 ft | 138 kts | 305° |
| 2026-04-27 15:51 | 51.62067 | 5.20790 | 2415 ft | 141 kts | 308° |
| 2026-04-27 15:51 | 51.62649 | 5.19558 | 2375 ft | 132 kts | 310° |
| 2026-04-27 15:51 | 51.63143 | 5.18343 | 2320 ft | 129 kts | 306° |
| 2026-04-27 15:51 | 51.63605 | 5.17105 | 2215 ft | 129 kts | 304° |
| 2026-04-27 15:52 | 51.64036 | 5.15883 | 2281 ft | 118 kts | 301° |
| 2026-04-27 15:52 | 51.64349 | 5.14724 | 2375 ft | 113 kts | 299° |
| 2026-04-27 15:52 | 51.64684 | 5.13577 | 2522 ft | 114 kts | 301° |
| 2026-04-27 15:52 | 51.65051 | 5.12406 | 2596 ft | 120 kts | 304° |
| 2026-04-27 15:53 | 51.65493 | 5.11298 | 2681 ft | 114 kts | 314° |
| 2026-04-27 15:53 | 51.65961 | 5.10254 | 2735 ft | 113 kts | 309° |
| 2026-04-27 15:53 | 51.66432 | 5.09206 | 2685 ft | 114 kts | 314° |
| 2026-04-27 15:53 | 51.66972 | 5.08309 | 2679 ft | 111 kts | 327° |
| 2026-04-27 15:54 | 51.67572 | 5.07502 | 2642 ft | 112 kts | 325° |
| 2026-04-27 15:54 | 51.68169 | 5.06721 | 2672 ft | 110 kts | 324° |
| 2026-04-27 15:54 | 51.68682 | 5.05778 | 2643 ft | 112 kts | 315° |
| 2026-04-27 15:54 | 51.69193 | 5.04826 | 2629 ft | 113 kts | 315° |
| 2026-04-27 15:55 | 51.69680 | 5.03837 | 2745 ft | 113 kts | 312° |
| 2026-04-27 15:55 | 51.69989 | 5.03162 | 2844 ft | 113 kts | 312° |
| 2026-04-27 15:55 | 51.70635 | 5.01832 | 2893 ft | 114 kts | 311° |
| 2026-04-27 15:55 | 51.71109 | 5.00804 | 2943 ft | 114 kts | 310° |
| 2026-04-27 15:56 | 51.71515 | 4.99940 | 2959 ft | 113 kts | 313° |
| 2026-04-27 15:56 | 51.72000 | 4.98941 | 3006 ft | 114 kts | 311° |
| 2026-04-27 15:56 | 51.72480 | 4.97941 | 3045 ft | 113 kts | 311° |
| 2026-04-27 15:56 | 51.72954 | 4.96934 | 3022 ft | 113 kts | 311° |
| 2026-04-27 15:57 | 51.73426 | 4.95939 | 3094 ft | 113 kts | 313° |
| 2026-04-27 15:57 | 51.73892 | 4.95042 | 3139 ft | 114 kts | 316° |
| 2026-04-27 15:57 | 51.74375 | 4.94026 | 3246 ft | 114 kts | 311° |
| 2026-04-27 15:57 | 51.74847 | 4.93002 | 3315 ft | 113 kts | 310° |
| 2026-04-27 15:58 | 51.75328 | 4.91978 | 3337 ft | 115 kts | 313° |
| 2026-04-27 15:58 | 51.75825 | 4.90968 | 3369 ft | 115 kts | 315° |
| 2026-04-27 15:58 | 51.76317 | 4.89957 | 3365 ft | 114 kts | 311° |
| 2026-04-27 15:58 | 51.76800 | 4.88936 | 3359 ft | 115 kts | 310° |
| 2026-04-27 15:59 | 51.77295 | 4.87932 | 3425 ft | 114 kts | 312° |
| 2026-04-27 15:59 | 51.77601 | 4.87280 | 3427 ft | 114 kts | 310° |
| 2026-04-27 15:59 | 51.77982 | 4.86499 | 3416 ft | 115 kts | 312° |
| 2026-04-27 15:59 | 51.78087 | 4.86279 | 3443 ft | 114 kts | 311° |
| 2026-04-27 16:00 | 51.78103 | 4.86244 | 3437 ft | 114 kts | 309° |